Edwardsburg, MI (49112)

4:47 PM EDT on July 28, 2015 (GMT -0400)
Eagle Lake | | Change Station
CLOSE
Current Station
Personal Weather Station
Location: Edwardsburg, MI
Elevation: 797 ft
Nearby Weather Stations

Elev 797 ft 41.81 °N, 86.03 °W | Updated 17 minutes ago

Partly Cloudy
Partly Cloudy
86.5 °F
Feels Like 92 °F
N
4.0
Wind Variable Wind from SSW
Gusts 4.0 mph

Today
High -- | Low -- °F
--% Chance of Precip.
Yesterday
High -- | Low -- °F
Precip. -- in
6:33 AM 9:06 PM
Waxing Gibbous, 91% visible
Pressure 29.99 in
Visibility 10.0 miles
Clouds Scattered Clouds 5000 ft
Heat Index 92 °F
Dew Point 72 °F
Humidity 61%
Rainfall 0.00 in
Snow Depth Not available.
UV 7 out of 12
Pollen 6.70 out of 12
Air Quality Not available.
Flu Activity Not available.
METAR KEKM 281950Z 16007KT 10SM SCT050 32/18 A2999 RMK AO2

More Conditions Fewer Conditions

Pressure 29.99 in
Visibility 10.0 miles
Clouds Scattered Clouds 5000 ft
Heat Index 92 °F
Dew Point 72 °F
Humidity 61%
Rainfall 0.00 in
Snow Depth Not available.
UV 7 out of 12
Pollen 6.70 out of 12
Air Quality Not available.
Flu Activity Not available.
METAR KEKM 281950Z 16007KT 10SM SCT050 32/18 A2999 RMK AO2

More Conditions Fewer Conditions

10-Day Weather Forecast

×

Almanac

Astronomy

Jul. 28, 2015 Rise Set
Actual Time
Civil Twilight
Nautical Twilight
Astronomical Twilight
Moon
Length of Visible Light
Length of Day
Tomorrow will be .
, % of the Moon is Illuminated

Today's Extremes

State Highs State Lows

Community

WunderPhotos

Upload Photos

1,841,942 photos uploaded!

WunderBlogs® & News

Nearby

Air Quality

  Air Quality AQ Index Pollutant
Not available.

Snow Depth

Station Depth Elevation

Earthquake Activity

City Distance Mag. Time & Date
Minimum magnitude displayed is 2.5.

Coastal Water Temperatures

Place Temperature

Stations

Nearby Weather Stations

Station Location Temp. Windchill Dew Point Humidity Wind Precip. Elev Updated Type